Ora Direzione Vento Velocita' Vento Media Vento Raffica Max. Temperatura Wind Chill Pioggia Pressione
18:33:51.0261 °(W)2.7 Kts4.3 Kts15.7 Kts18.7 °C18.7 °C0.0 mm1016.1 Hpa
18:12:52.0227 °(SW)3.7 Kts2.9 Kts15.7 Kts19.4 °C19.4 °C0.0 mm1015.8 Hpa
17:53:40.0209 °(SSW)1.8 Kts1.9 Kts15.7 Kts19.1 °C19.1 °C0.0 mm1016.1 Hpa
17:32:38.0202 °(SSW)1.0 Kts2.7 Kts15.7 Kts19.3 °C19.3 °C0.0 mm1016.1 Hpa
17:13:43.0231 °(SW)5.4 Kts4.1 Kts15.7 Kts19.5 °C19.5 °C0.0 mm1016.2 Hpa
16:52:40.0244 °(WSW)3.7 Kts3.9 Kts15.7 Kts19.6 °C19.6 °C0.0 mm1016.3 Hpa
16:33:35.0217 °(SW)7.4 Kts7.8 Kts15.7 Kts19.3 °C19.3 °C0.0 mm1016.4 Hpa
16:12:25.0261 °(W)3.7 Kts6.4 Kts15.7 Kts19.2 °C19.2 °C0.0 mm1016.4 Hpa
15:53:15.0142 °(SE)1.8 Kts4.3 Kts15.7 Kts19.9 °C19.9 °C0.0 mm1016.3 Hpa
15:32:04.0216 °(SW)3.7 Kts2.5 Kts15.7 Kts20.0 °C20.0 °C0.0 mm1016.6 Hpa
15:13:12.0188 °(S)4.7 Kts4.7 Kts15.7 Kts20.2 °C20.2 °C0.0 mm1016.6 Hpa
14:52:13.0203 °(SSW)1.8 Kts3.3 Kts15.7 Kts19.6 °C19.6 °C0.0 mm1016.8 Hpa
14:33:17.0210 °(SSW)5.4 Kts5.4 Kts15.7 Kts19.2 °C19.3 °C0.0 mm1016.8 Hpa
14:12:13.0257 °(WSW)6.4 Kts5.1 Kts15.7 Kts19.2 °C19.2 °C0.0 mm1016.9 Hpa
13:53:19.0221 °(SW)2.7 Kts5.2 Kts15.7 Kts19.3 °C19.2 °C0.0 mm1017.2 Hpa
13:32:31.0224 °(SW)9.1 Kts4.3 Kts15.7 Kts19.7 °C19.7 °C0.0 mm1017.3 Hpa
13:13:43.0188 °(S)2.7 Kts4.5 Kts15.7 Kts19.2 °C19.2 °C0.0 mm1017.3 Hpa
12:52:53.0261 °(W)10.1 Kts5.8 Kts15.7 Kts19.3 °C19.2 °C0.0 mm1017.5 Hpa
12:31:53.0149 °(SSE)2.7 Kts6.4 Kts12.8 Kts19.2 °C19.2 °C0.0 mm1017.7 Hpa
12:13:05.0209 °(SSW)5.4 Kts5.2 Kts12.8 Kts19.1 °C19.1 °C0.0 mm1017.5 Hpa